createdAt,value
2023-04-03T00:01:17.573Z,100509.75
2023-04-03T00:06:14.361Z,100503.16
2023-04-03T00:11:15.614Z,100480.53
2023-04-03T00:16:13.518Z,100461.56
2023-04-03T00:21:14.051Z,100522.59
2023-04-03T00:26:11.489Z,100507.94
2023-04-03T00:31:10.728Z,100471.44
2023-04-03T00:36:10.252Z,100474.16
2023-04-03T00:41:07.478Z,100504.84
2023-04-03T00:46:04.835Z,100523.66
2023-04-03T00:51:03.288Z,100535.25
2023-04-03T00:56:01.260Z,100531.13
2023-04-03T01:00:59.861Z,100524.34
2023-04-03T01:05:56.994Z,100522.75
2023-04-03T01:10:53.777Z,100539.53
2023-04-03T01:15:53.225Z,100514.00
2023-04-03T01:21:37.788Z,100528.31
2023-04-03T01:26:36.053Z,100511.66
2023-04-03T01:31:44.538Z,100518.19
2023-04-03T01:36:43.981Z,100518.84
2023-04-03T01:41:41.694Z,100497.94
2023-04-03T01:46:45.083Z,100538.88
2023-04-03T01:51:42.456Z,100539.94
2023-04-03T01:56:40.128Z,100462.19
2023-04-03T02:01:38.281Z,100481.56
2023-04-03T02:06:35.908Z,100513.00
2023-04-03T02:11:32.804Z,100533.16
2023-04-03T02:16:29.665Z,100543.13
2023-04-03T02:21:26.605Z,100525.69
2023-04-03T02:26:25.347Z,100517.50
2023-04-03T02:31:22.682Z,100535.66
2023-04-03T02:36:19.448Z,100553.94
2023-04-03T02:41:22.399Z,100545.25
2023-04-03T02:46:22.537Z,100572.91
2023-04-03T02:51:19.366Z,100577.44
2023-04-03T02:56:17.501Z,100564.53
2023-04-03T03:01:15.020Z,100507.19
2023-04-03T03:06:14.401Z,100568.97
2023-04-03T03:11:11.985Z,100570.06
2023-04-03T03:16:08.978Z,100549.09
2023-04-03T03:21:06.206Z,100585.25
2023-04-03T03:26:06.248Z,100536.53
2023-04-03T03:31:05.312Z,100540.34
2023-04-03T03:36:03.017Z,100532.97
2023-04-03T03:41:00.043Z,100576.47
2023-04-03T03:45:58.362Z,100556.16
2023-04-03T03:50:57.123Z,100618.59
2023-04-03T03:55:58.410Z,100620.81
2023-04-03T04:00:57.210Z,100604.03
2023-04-03T04:05:55.192Z,100592.81
2023-04-03T04:10:52.248Z,100586.31
2023-04-03T04:15:49.499Z,100593.84
2023-04-03T04:20:47.710Z,100550.97
2023-04-03T04:25:48.103Z,100534.25
2023-04-03T04:30:48.425Z,100567.69
2023-04-03T04:35:50.604Z,100532.41
2023-04-03T04:40:51.169Z,100615.41
2023-04-03T04:45:48.582Z,100558.88
2023-04-03T04:50:48.952Z,100591.38
2023-04-03T04:55:46.606Z,100592.34
2023-04-03T05:00:44.300Z,100547.94
2023-04-03T05:05:41.596Z,100619.78
2023-04-03T05:10:41.187Z,100582.38
2023-04-03T05:15:41.910Z,100591.34
2023-04-03T05:20:43.700Z,100616.28
2023-04-03T05:25:41.465Z,100630.72
2023-04-03T05:30:39.731Z,100559.84
2023-04-03T05:35:39.733Z,100636.75
2023-04-03T05:40:45.273Z,100611.38
2023-04-03T05:45:46.850Z,100612.34
2023-04-03T05:50:46.771Z,100653.78
2023-04-03T05:55:50.195Z,100629.22
2023-04-03T06:00:47.500Z,100639.97
2023-04-03T06:05:44.562Z,100667.59
2023-04-03T06:10:42.359Z,100685.44
2023-04-03T06:15:45.848Z,100633.19
2023-04-03T06:20:44.754Z,100629.75
2023-04-03T06:25:42.402Z,100626.31
2023-04-03T06:30:39.356Z,100710.78
2023-04-03T06:35:38.892Z,100709.72
2023-04-03T06:40:36.581Z,100711.63
2023-04-03T06:45:35.051Z,100682.44
2023-04-03T06:50:33.649Z,100613.47
2023-04-03T06:55:32.101Z,100712.97
2023-04-03T07:00:31.934Z,100716.59
2023-04-03T07:05:30.109Z,100718.47
2023-04-03T07:10:27.270Z,100724.72
2023-04-03T07:15:25.173Z,100708.38
2023-04-03T07:20:22.017Z,100711.13
2023-04-03T07:25:18.901Z,100721.59
2023-04-03T07:30:19.254Z,100681.59
2023-04-03T07:35:23.872Z,100732.16
2023-04-03T07:40:21.521Z,100715.66
2023-04-03T07:45:18.393Z,100750.59
2023-04-03T07:50:16.381Z,100745.56
2023-04-03T07:55:13.284Z,100750.56
2023-04-03T08:00:12.495Z,100754.69
2023-04-03T08:05:09.802Z,100755.13
2023-04-03T08:10:08.315Z,100737.63
2023-04-03T08:15:06.077Z,100761.38
2023-04-03T08:20:03.923Z,100750.56
2023-04-03T08:25:01.835Z,100761.94
2023-04-03T08:29:59.317Z,100748.31
2023-04-03T08:34:56.238Z,100750.16
2023-04-03T08:39:53.732Z,100750.72
2023-04-03T08:44:58.028Z,100733.84
2023-04-03T08:50:00.246Z,100699.56
2023-04-03T08:55:01.378Z,100724.00
2023-04-03T09:00:01.653Z,100719.53
2023-04-03T09:04:59.268Z,100695.81
2023-04-03T09:09:59.311Z,100652.56
2023-04-03T09:15:09.593Z,100648.50
2023-04-03T09:20:26.461Z,100631.38
2023-04-03T09:25:26.465Z,100639.81
2023-04-03T09:30:29.878Z,100667.84
2023-04-03T09:35:40.633Z,100619.72
2023-04-03T09:40:47.703Z,100697.59
2023-04-03T09:45:46.047Z,100666.06
2023-04-03T09:50:57.040Z,100694.75
2023-04-03T09:55:53.828Z,100707.94
2023-04-03T10:00:57.960Z,100646.06
2023-04-03T10:05:55.957Z,100650.97
2023-04-03T10:11:12.269Z,100703.22
2023-04-03T10:16:15.024Z,100700.91
2023-04-03T10:21:27.078Z,100696.38
2023-04-03T10:26:35.224Z,100685.50
2023-04-03T10:31:47.192Z,100671.22
2023-04-03T10:36:50.570Z,100681.16
2023-04-03T10:42:09.338Z,100683.97
2023-04-03T10:47:19.610Z,100674.16
2023-04-03T10:52:23.218Z,100613.78
2023-04-03T10:57:23.328Z,100649.44
2023-04-03T11:02:31.066Z,100668.28
2023-04-03T11:07:36.402Z,100650.28
2023-04-03T11:12:42.671Z,100648.91
2023-04-03T11:17:46.957Z,100646.78
2023-04-03T11:22:48.180Z,100643.16
2023-04-03T11:27:48.185Z,100611.22
2023-04-03T11:33:11.287Z,100645.47
2023-04-03T11:38:19.609Z,100627.22
2023-04-03T11:43:23.512Z,100608.13
2023-04-03T11:48:54.674Z,100621.72
2023-04-03T11:53:52.874Z,100615.81
2023-04-03T11:59:32.098Z,100606.03
2023-04-03T12:04:34.491Z,100540.69
2023-04-03T12:10:30.434Z,100593.75
2023-04-03T12:15:55.788Z,100533.69
2023-04-03T12:20:57.955Z,100529.84
2023-04-03T12:26:10.647Z,100531.53
2023-04-03T12:31:12.456Z,100553.75
2023-04-03T12:36:16.444Z,100540.84
2023-04-03T12:41:29.598Z,100566.06
2023-04-03T12:46:38.760Z,100540.34
2023-04-03T12:51:45.878Z,100552.16
2023-04-03T12:56:47.985Z,100527.06
2023-04-03T13:01:59.573Z,100589.38
2023-04-03T13:07:00.924Z,100585.16
2023-04-03T13:12:02.254Z,100570.97
2023-04-03T13:17:00.965Z,100578.59
2023-04-03T13:22:06.996Z,100567.78
2023-04-03T13:27:07.013Z,100475.75
2023-04-03T13:32:07.004Z,100519.97
2023-04-03T13:37:05.419Z,100565.91
2023-04-03T13:42:16.464Z,100505.63
2023-04-03T13:47:20.543Z,100553.13
2023-04-03T13:52:30.299Z,100532.41
2023-04-03T13:57:28.428Z,100509.75
2023-04-03T14:02:35.221Z,100524.72
2023-04-03T14:07:38.087Z,100545.63
2023-04-03T14:12:37.986Z,100554.47
2023-04-03T14:18:08.806Z,100555.50
2023-04-03T14:28:23.660Z,100534.31
2023-04-03T14:33:27.759Z,100556.13
2023-04-03T14:38:27.238Z,100515.59
2023-04-03T14:43:24.523Z,100551.94
2023-04-03T14:48:24.181Z,100542.00
2023-04-03T14:53:37.783Z,100554.34
2023-04-03T14:58:36.808Z,100507.44
2023-04-03T15:03:34.378Z,100511.16
2023-04-03T15:08:31.239Z,100482.97
2023-04-03T15:13:27.963Z,100538.66
2023-04-03T15:18:28.980Z,100532.66
2023-04-03T15:23:30.293Z,100518.16
2023-04-03T15:28:33.268Z,100541.16
2023-04-03T15:33:31.148Z,100535.72
2023-04-03T15:38:28.846Z,100546.16
2023-04-03T15:43:26.129Z,100488.47
2023-04-03T15:48:29.580Z,100512.81
2023-04-03T15:53:26.627Z,100513.75
2023-04-03T15:58:24.306Z,100463.56
2023-04-03T16:03:22.609Z,100486.06
2023-04-03T16:08:20.143Z,100543.69
2023-04-03T16:13:16.880Z,100558.47
2023-04-03T16:18:15.879Z,100517.00
2023-04-03T16:23:12.749Z,100507.53
2023-04-03T16:28:15.606Z,100538.91
2023-04-03T16:33:15.567Z,100577.84
2023-04-03T16:38:12.645Z,100573.44
2023-04-03T16:43:09.793Z,100566.88
2023-04-03T16:48:06.935Z,100578.03
2023-04-03T16:53:04.767Z,100564.72
2023-04-03T16:58:01.973Z,100518.84
2023-04-03T17:02:59.218Z,100522.44
2023-04-03T17:07:56.321Z,100511.41
2023-04-03T17:12:55.808Z,100574.63
2023-04-03T17:17:55.982Z,100592.22
2023-04-03T17:22:54.207Z,100573.06
2023-04-03T17:27:51.108Z,100559.44
2023-04-03T17:32:49.189Z,100555.91
2023-04-03T17:37:49.249Z,100555.16
2023-04-03T17:42:46.188Z,100596.13
2023-04-03T17:47:43.100Z,100538.69
2023-04-03T17:52:40.901Z,100571.59
2023-04-03T17:57:38.333Z,100527.94
2023-04-03T18:02:35.610Z,100557.03
2023-04-03T18:07:32.642Z,100565.06
2023-04-03T18:12:30.989Z,100611.34
2023-04-03T18:17:28.052Z,100617.94
2023-04-03T18:22:25.395Z,100630.84
2023-04-03T18:27:26.505Z,100621.03
2023-04-03T18:32:24.289Z,100579.22
2023-04-03T18:37:23.236Z,100591.06
2023-04-03T18:42:25.313Z,100588.25
2023-04-03T18:47:24.273Z,100578.00
2023-04-03T18:52:24.658Z,100561.47
2023-04-03T18:57:21.416Z,100542.47
2023-04-03T19:02:21.382Z,100561.84
2023-04-03T19:07:19.033Z,100558.91
2023-04-03T19:12:16.682Z,100587.44
2023-04-03T19:17:13.796Z,100456.06
2023-04-03T19:22:11.634Z,100563.56
2023-04-03T19:27:08.535Z,100525.41
2023-04-03T19:32:12.097Z,100407.53
2023-04-03T19:37:14.268Z,100487.94
2023-04-03T19:42:12.255Z,100405.91
2023-04-03T19:47:12.868Z,100457.66
2023-04-03T19:52:09.702Z,100431.97
2023-04-03T19:57:07.457Z,100397.25
2023-04-03T20:02:04.416Z,100458.25
2023-04-03T20:07:02.400Z,100469.88
2023-04-03T20:12:00.764Z,100444.16
2023-04-03T20:16:57.807Z,100385.13
2023-04-03T20:21:58.398Z,100415.47
2023-04-03T20:26:58.014Z,100411.81
2023-04-03T20:31:55.478Z,100406.16
2023-04-03T20:36:52.888Z,100416.47
2023-04-03T20:41:50.239Z,100430.78
2023-04-03T20:46:52.729Z,100447.06
2023-04-03T20:51:50.972Z,100424.78
2023-04-03T20:56:49.049Z,100475.44
2023-04-03T21:01:46.993Z,100479.16
2023-04-03T21:07:22.125Z,100484.41
2023-04-03T21:12:55.920Z,100498.50
2023-04-03T21:18:16.534Z,100413.63
2023-04-03T21:23:13.693Z,100424.81
2023-04-03T21:28:10.750Z,100480.19
2023-04-03T21:33:09.886Z,100425.09
2023-04-03T21:38:08.484Z,100447.28
2023-04-03T21:43:05.440Z,100454.47
2023-04-03T21:48:03.237Z,100456.94
2023-04-03T21:53:01.404Z,100501.31
2023-04-03T21:57:58.868Z,100439.66
2023-04-03T22:03:04.142Z,100445.31
2023-04-03T22:08:06.628Z,100451.53
2023-04-03T22:13:03.532Z,100391.66
2023-04-03T22:18:00.476Z,100426.69
2023-04-03T22:22:57.605Z,100447.34
2023-04-03T22:27:55.131Z,100337.56
2023-04-03T22:32:51.926Z,100424.34
2023-04-03T22:37:48.700Z,100399.53
2023-04-03T22:42:48.355Z,100452.88
2023-04-03T22:47:46.215Z,100426.66
2023-04-03T22:52:43.068Z,100440.44
2023-04-03T22:57:39.882Z,100420.97
2023-04-03T23:02:36.823Z,100427.25
2023-04-03T23:07:34.364Z,100374.75
2023-04-03T23:12:36.428Z,100423.34
2023-04-03T23:17:37.507Z,100334.28
2023-04-03T23:22:35.746Z,100393.63
2023-04-03T23:27:32.702Z,100423.38
2023-04-03T23:32:30.233Z,100417.63
2023-04-03T23:37:27.360Z,100426.69
2023-04-03T23:42:24.822Z,100360.22
2023-04-03T23:47:21.660Z,100327.44
2023-04-03T23:52:19.393Z,100421.31
2023-04-03T23:57:16.388Z,100419.31
